Time;durP1;ratioP1;P1;durP2;ratioP2;P2;SDS_P1;SDS_P2;PMS_P1;PMS_P2;Temp;Humidity;BMP_temperature;BMP_pressure;BME280_temperature;BME280_humidity;BME280_pressure;Samples;Min_cycle;Max_cycle;Signal;HPM_P1;HPM_P2
2023/07/02 00:01:18;;;;;;;9.20;3.75;;;17.10;99.90;;;;;;5112059;28;20520;-51
2023/07/02 00:03:44;;;;;;;4.28;3.47;;;17.10;99.90;;;;;;5111682;28;20165;-51
2023/07/02 00:06:09;;;;;;;15.27;3.95;;;17.10;99.90;;;;;;5112052;28;20513;-50
2023/07/02 00:08:35;;;;;;;11.10;3.80;;;17.00;99.90;;;;;;5111994;28;20175;-51
2023/07/02 00:11:00;;;;;;;9.43;4.07;;;17.00;99.90;;;;;;5112171;28;20285;-50
2023/07/02 00:13:26;;;;;;;12.82;4.75;;;17.00;99.90;;;;;;5111819;28;20202;-50
2023/07/02 00:15:51;;;;;;;11.15;4.78;;;17.00;99.90;;;;;;5111362;28;20267;-50
2023/07/02 00:18:17;;;;;;;7.10;3.85;;;17.00;99.90;;;;;;5111883;28;20157;-50
2023/07/02 00:20:43;;;;;;;7.88;4.70;;;17.00;99.90;;;;;;5111804;28;20540;-50
2023/07/02 00:23:09;;;;;;;11.40;4.20;;;17.00;99.90;;;;;;5114618;28;20164;-51
2023/07/02 00:25:36;;;;;;;10.07;4.35;;;16.90;99.90;;;;;;5116290;28;20201;-51
2023/07/02 00:28:01;;;;;;;11.48;5.22;;;16.90;99.90;;;;;;5116385;28;20164;-51
2023/07/02 00:30:27;;;;;;;13.35;4.75;;;16.90;99.90;;;;;;5115898;28;20654;-50
2023/07/02 00:32:52;;;;;;;11.13;5.15;;;16.90;99.90;;;;;;5115848;28;20570;-50
2023/07/02 00:35:18;;;;;;;11.38;5.30;;;16.90;99.90;;;;;;5115697;28;20196;-50
2023/07/02 00:37:43;;;;;;;11.50;5.55;;;16.90;99.90;;;;;;5115788;28;20256;-50
2023/07/02 00:40:09;;;;;;;8.50;4.70;;;16.90;99.90;;;;;;5115798;28;20167;-50
2023/07/02 00:42:35;;;;;;;8.50;5.40;;;16.80;99.90;;;;;;5115952;28;20190;-50
2023/07/02 00:45:04;;;;;;;12.07;5.65;;;16.80;99.90;;;;;;5116056;28;20230;-51
2023/07/02 00:47:34;;;;;;;13.68;4.85;;;16.80;99.90;;;;;;5098276;28;20515;-50
2023/07/02 00:50:01;;;;;;;10.75;5.55;;;16.80;99.90;;;;;;5116015;28;20226;-50
2023/07/02 00:52:27;;;;;;;10.15;5.60;;;16.80;99.90;;;;;;5115778;28;20169;-50
2023/07/02 00:54:52;;;;;;;8.45;4.97;;;16.80;99.90;;;;;;5115423;28;20253;-50
2023/07/02 00:57:18;;;;;;;9.95;5.53;;;16.70;99.90;;;;;;5115508;28;20179;-50
2023/07/02 00:59:44;;;;;;;7.97;5.43;;;16.70;99.90;;;;;;5115337;28;20165;-50
2023/07/02 01:02:10;;;;;;;14.68;6.70;;;16.70;99.90;;;;;;5115398;28;20531;-50
2023/07/02 01:04:36;;;;;;;11.55;6.28;;;16.70;99.90;;;;;;5115554;28;20207;-50
2023/07/02 01:07:08;;;;;;;16.20;6.78;;;16.70;99.90;;;;;;5115668;28;20153;-50
2023/07/02 01:09:34;;;;;;;15.20;6.85;;;16.70;99.90;;;;;;5115344;28;20256;-50
2023/07/02 01:12:04;;;;;;;13.63;6.32;;;16.70;99.90;;;;;;5115576;28;20196;-50
2023/07/02 01:14:39;;;;;;;13.57;7.00;;;16.70;99.90;;;;;;5115455;28;20200;-50
2023/07/02 01:17:06;;;;;;;17.13;7.28;;;16.70;99.90;;;;;;5115053;28;20192;-50
2023/07/02 01:19:51;;;;;;;16.90;7.00;;;16.60;99.90;;;;;;5115796;28;20168;-50
2023/07/02 01:22:19;;;;;;;18.42;7.60;;;16.60;99.90;;;;;;5114956;28;20160;-50
2023/07/02 01:24:48;;;;;;;16.45;7.15;;;16.60;99.90;;;;;;5114829;28;20613;-50
2023/07/02 01:27:15;;;;;;;14.52;7.32;;;16.60;99.90;;;;;;5114891;28;20168;-51
2023/07/02 01:29:41;;;;;;;14.40;7.63;;;16.60;99.90;;;;;;5114839;28;20168;-51
2023/07/02 01:32:08;;;;;;;17.75;8.05;;;16.60;99.90;;;;;;5114627;28;20176;-51
2023/07/02 01:34:34;;;;;;;15.75;8.45;;;16.50;99.90;;;;;;5114276;28;20188;-51
2023/07/02 01:37:00;;;;;;;19.42;7.50;;;16.50;99.90;;;;;;5115185;28;20176;-50
2023/07/02 01:39:26;;;;;;;13.10;7.20;;;16.50;99.90;;;;;;5114915;28;20172;-51
2023/07/02 01:41:53;;;;;;;11.63;7.63;;;16.50;99.90;;;;;;5096223;28;20172;-50
2023/07/02 01:44:20;;;;;;;16.58;7.28;;;16.50;99.90;;;;;;5096278;28;20632;-51
2023/07/02 01:46:48;;;;;;;13.25;7.70;;;16.50;99.90;;;;;;5114415;28;20172;-50
2023/07/02 01:49:18;;;;;;;15.23;6.78;;;16.40;99.90;;;;;;5114699;28;20185;-50
2023/07/02 01:51:50;;;;;;;14.75;8.18;;;16.40;99.90;;;;;;5114375;28;20168;-51
2023/07/02 01:54:15;;;;;;;16.15;7.43;;;16.40;99.90;;;;;;5114174;28;20652;-51
2023/07/02 01:56:41;;;;;;;14.57;7.53;;;16.40;99.90;;;;;;5114367;28;20175;-51
2023/07/02 01:59:07;;;;;;;16.15;8.45;;;16.40;99.90;;;;;;5114415;28;20165;-51
2023/07/02 02:01:32;;;;;;;12.27;7.10;;;16.40;99.90;;;;;;5114626;28;20168;-51
2023/07/02 02:03:58;;;;;;;22.90;8.07;;;16.40;99.90;;;;;;5114300;28;20161;-51
2023/07/02 02:06:24;;;;;;;15.63;7.65;;;16.30;99.90;;;;;;5114060;28;20306;-50
2023/07/02 02:08:49;;;;;;;16.02;8.23;;;16.30;99.90;;;;;;5114074;28;20157;-50
2023/07/02 02:11:15;;;;;;;18.63;8.15;;;16.30;99.90;;;;;;5113860;28;20212;-50
2023/07/02 02:13:40;;;;;;;18.60;9.15;;;16.30;99.90;;;;;;5095642;28;20200;-51
2023/07/02 02:16:06;;;;;;;20.98;8.55;;;16.20;99.90;;;;;;5113879;28;20216;-50
2023/07/02 02:18:32;;;;;;;17.73;8.98;;;16.20;99.90;;;;;;5113777;28;20175;-50
2023/07/02 02:20:57;;;;;;;16.83;8.80;;;16.20;99.90;;;;;;5113767;28;20659;-50
2023/07/02 02:23:23;;;;;;;18.05;9.05;;;16.20;99.90;;;;;;5113566;28;20165;-50
2023/07/02 02:25:48;;;;;;;18.20;8.05;;;16.10;99.90;;;;;;5113696;28;20745;-50
2023/07/02 02:28:14;;;;;;;15.27;8.52;;;16.10;99.90;;;;;;5113641;28;20172;-50
2023/07/02 02:30:39;;;;;;;24.45;9.07;;;16.10;99.90;;;;;;5113684;28;20243;-50
2023/07/02 02:33:05;;;;;;;20.98;9.55;;;16.00;99.90;;;;;;5113581;28;20191;-51
2023/07/02 02:35:30;;;;;;;19.02;8.95;;;16.00;99.90;;;;;;5113929;28;20204;-50
2023/07/02 02:37:56;;;;;;;19.58;10.13;;;16.00;99.90;;;;;;5113671;28;20650;-51
2023/07/02 02:40:22;;;;;;;22.23;9.75;;;15.90;99.90;;;;;;5113491;28;20164;-50
2023/07/02 02:42:47;;;;;;;14.90;9.32;;;15.90;99.90;;;;;;5113394;28;20628;-50
2023/07/02 02:45:13;;;;;;;19.52;9.15;;;15.80;99.90;;;;;;5112354;28;20168;-51
2023/07/02 02:47:38;;;;;;;17.80;10.65;;;15.80;99.90;;;;;;5113296;28;20631;-51
2023/07/02 02:50:06;;;;;;;23.42;9.55;;;15.80;99.90;;;;;;5094944;28;20565;-51
2023/07/02 02:52:31;;;;;;;16.95;9.52;;;15.80;99.90;;;;;;5113578;28;20297;-51
2023/07/02 02:54:57;;;;;;;26.77;9.95;;;15.70;99.90;;;;;;5113042;28;20283;-51
2023/07/02 02:57:22;;;;;;;17.17;9.45;;;15.70;99.90;;;;;;5113110;28;20509;-50
2023/07/02 02:59:48;;;;;;;16.58;10.02;;;15.70;99.90;;;;;;5113022;28;20169;-51
2023/07/02 03:02:13;;;;;;;19.05;10.80;;;15.70;99.90;;;;;;5113035;28;20165;-50
2023/07/02 03:04:39;;;;;;;23.63;10.60;;;15.70;99.90;;;;;;5094785;28;20182;-50
2023/07/02 03:07:06;;;;;;;24.60;10.95;;;15.70;99.90;;;;;;5112930;28;20161;-50
2023/07/02 03:09:32;;;;;;;24.55;11.13;;;15.70;99.90;;;;;;5113115;28;20220;-50
2023/07/02 03:11:58;;;;;;;20.55;10.52;;;15.70;99.90;;;;;;5113020;28;20186;-50
2023/07/02 03:14:23;;;;;;;21.48;10.32;;;15.70;99.90;;;;;;5112904;28;20708;-50
2023/07/02 03:16:49;;;;;;;21.15;10.25;;;15.70;99.90;;;;;;5112732;28;20543;-50
2023/07/02 03:19:15;;;;;;;19.80;10.63;;;15.70;99.90;;;;;;5112805;28;20620;-50
2023/07/02 03:21:43;;;;;;;23.65;11.57;;;15.80;99.90;;;;;;5112942;28;20176;-51
2023/07/02 03:24:12;;;;;;;20.38;11.75;;;15.80;99.90;;;;;;5112641;28;20156;-50
2023/07/02 03:26:38;;;;;;;20.40;10.60;;;15.80;99.90;;;;;;5112515;28;20705;-50
2023/07/02 03:29:04;;;;;;;29.17;12.18;;;15.80;99.90;;;;;;5112582;28;20169;-50
2023/07/02 03:31:30;;;;;;;21.75;11.75;;;15.80;99.90;;;;;;5113174;28;20214;-50
2023/07/02 03:33:55;;;;;;;23.23;11.93;;;15.80;99.90;;;;;;5112549;28;20221;-50
2023/07/02 03:36:21;;;;;;;21.10;12.23;;;15.80;99.90;;;;;;5112260;28;20284;-50
2023/07/02 03:38:46;;;;;;;19.85;11.20;;;15.80;99.90;;;;;;5112425;28;20165;-50
2023/07/02 03:41:12;;;;;;;28.50;12.45;;;15.80;99.90;;;;;;5112709;28;20181;-50
2023/07/02 03:43:37;;;;;;;28.95;11.88;;;15.90;99.90;;;;;;5112283;28;20644;-51
2023/07/02 03:46:03;;;;;;;27.98;12.63;;;15.80;99.90;;;;;;5112699;28;20179;-50
2023/07/02 03:48:28;;;;;;;24.65;12.07;;;15.90;99.90;;;;;;5112645;28;20172;-50
2023/07/02 03:50:54;;;;;;;27.33;13.85;;;15.90;99.90;;;;;;5112118;28;20165;-50
2023/07/02 03:53:19;;;;;;;26.50;13.65;;;15.90;99.90;;;;;;5112086;28;20175;-50
2023/07/02 03:55:45;;;;;;;24.10;12.50;;;15.90;99.90;;;;;;5111802;28;20208;-50
2023/07/02 03:58:10;;;;;;;31.40;13.18;;;15.90;99.90;;;;;;5112352;28;20214;-50
2023/07/02 04:00:36;;;;;;;26.75;12.90;;;15.90;99.90;;;;;;5112132;28;20165;-50
2023/07/02 04:03:02;;;;;;;24.60;13.27;;;16.00;99.90;;;;;;5112662;28;20165;-50
2023/07/02 04:05:27;;;;;;;24.08;13.52;;;16.10;99.90;;;;;;5112186;28;20647;-50
2023/07/02 04:07:53;;;;;;;28.08;14.02;;;16.00;99.90;;;;;;5093680;28;20157;-50
2023/07/02 04:10:18;;;;;;;23.23;13.45;;;16.00;99.90;;;;;;5111734;28;20711;-50
2023/07/02 04:12:44;;;;;;;25.13;13.23;;;16.10;99.90;;;;;;5111919;28;20175;-50
2023/07/02 04:15:10;;;;;;;29.13;14.52;;;16.10;99.90;;;;;;5111891;28;20701;-50
2023/07/02 04:17:35;;;;;;;33.55;14.90;;;16.10;99.90;;;;;;5112177;28;20240;-51
2023/07/02 04:20:03;;;;;;;27.05;14.38;;;16.10;99.90;;;;;;5112405;28;20581;-51
2023/07/02 04:22:29;;;;;;;26.17;13.88;;;16.20;99.90;;;;;;5112315;28;20172;-51
2023/07/02 04:24:55;;;;;;;31.35;14.90;;;16.20;99.90;;;;;;5111783;28;20176;-51
2023/07/02 04:27:21;;;;;;;25.85;14.50;;;16.20;99.90;;;;;;5111707;28;20176;-51
2023/07/02 04:29:47;;;;;;;29.58;13.85;;;16.20;99.90;;;;;;5111677;28;20169;-51
2023/07/02 04:32:13;;;;;;;27.60;15.00;;;16.20;99.90;;;;;;5111790;28;20244;-51
2023/07/02 04:34:38;;;;;;;32.78;15.75;;;16.20;99.90;;;;;;5111706;28;20219;-51
2023/07/02 04:37:05;;;;;;;30.77;16.55;;;16.30;99.90;;;;;;5111715;28;20173;-51
2023/07/02 04:39:30;;;;;;;29.73;14.90;;;16.30;99.90;;;;;;5112261;28;20168;-51
2023/07/02 04:41:56;;;;;;;29.95;15.25;;;16.30;99.90;;;;;;5111622;28;20635;-51
2023/07/02 04:44:29;;;;;;;29.85;16.55;;;16.40;99.90;;;;;;5111586;28;20204;-51
2023/07/02 04:46:57;;;;;;;32.58;17.02;;;16.50;99.90;;;;;;5111609;28;20222;-50
2023/07/02 04:49:22;;;;;;;36.35;16.40;;;16.60;99.90;;;;;;5093359;28;20256;-51
2023/07/02 04:51:48;;;;;;;38.53;17.30;;;16.70;99.90;;;;;;5111567;28;20245;-51
2023/07/02 04:54:14;;;;;;;32.63;17.00;;;16.70;99.90;;;;;;5111362;28;20175;-51
2023/07/02 04:56:39;;;;;;;27.92;16.35;;;16.70;99.90;;;;;;5111685;28;20195;-50
2023/07/02 04:59:05;;;;;;;30.90;16.73;;;16.70;99.90;;;;;;5111713;28;20167;-50
2023/07/02 05:01:30;;;;;;;25.85;16.63;;;16.70;99.90;;;;;;5111979;28;20176;-50
2023/07/02 05:03:56;;;;;;;31.70;15.60;;;16.70;99.90;;;;;;5111031;28;20254;-50
2023/07/02 05:06:21;;;;;;;31.75;16.90;;;16.80;99.90;;;;;;5111432;28;20165;-51
2023/07/02 05:08:47;;;;;;;29.38;17.77;;;16.90;99.90;;;;;;5113646;28;20259;-51
2023/07/02 05:11:12;;;;;;;36.75;17.85;;;17.00;99.90;;;;;;5115157;28;20293;-50
2023/07/02 05:13:38;;;;;;;36.83;18.17;;;17.10;99.90;;;;;;5115245;28;20168;-50
2023/07/02 05:16:03;;;;;;;34.75;16.38;;;17.10;99.90;;;;;;5115248;28;20261;-51
2023/07/02 05:18:29;;;;;;;33.92;17.77;;;17.20;99.90;;;;;;5115492;28;20575;-51
2023/07/02 05:20:55;;;;;;;30.20;17.38;;;17.20;99.90;;;;;;5115006;28;20691;-50
2023/07/02 05:23:20;;;;;;;35.42;18.08;;;17.30;99.90;;;;;;5114919;28;20161;-51
2023/07/02 05:25:46;;;;;;;37.33;18.02;;;17.30;99.90;;;;;;5114908;28;20238;-50
2023/07/02 05:28:11;;;;;;;31.75;18.48;;;17.20;99.90;;;;;;5114750;28;20190;-50
2023/07/02 05:30:37;;;;;;;30.35;18.08;;;17.20;99.90;;;;;;5114797;28;20176;-50
2023/07/02 05:33:02;;;;;;;42.15;19.25;;;17.20;99.90;;;;;;5114964;28;20164;-51
2023/07/02 05:35:28;;;;;;;32.13;16.75;;;17.20;99.90;;;;;;5115048;28;20281;-51
2023/07/02 05:37:53;;;;;;;31.05;17.60;;;17.20;99.90;;;;;;5114724;28;20195;-50
2023/07/02 05:40:19;;;;;;;31.02;17.70;;;17.20;99.90;;;;;;5114691;28;20181;-50
2023/07/02 05:42:45;;;;;;;45.25;19.30;;;17.30;99.90;;;;;;5114504;28;20168;-50
2023/07/02 05:45:10;;;;;;;32.65;18.52;;;17.30;99.90;;;;;;5114598;28;20164;-51
2023/07/02 05:47:36;;;;;;;34.17;17.48;;;17.40;99.90;;;;;;5114726;28;20196;-51
2023/07/02 05:50:02;;;;;;;30.73;17.33;;;17.50;99.90;;;;;;5114890;28;20183;-51
2023/07/02 05:52:27;;;;;;;38.05;18.10;;;17.50;99.90;;;;;;5114769;28;20253;-51
2023/07/02 05:54:53;;;;;;;32.00;17.45;;;17.70;99.90;;;;;;5114305;28;20266;-51
2023/07/02 05:57:18;;;;;;;33.20;18.45;;;17.70;99.90;;;;;;5114356;28;20164;-51
2023/07/02 05:59:44;;;;;;;32.35;16.80;;;17.70;99.90;;;;;;5114294;28;20238;-51
2023/07/02 06:02:09;;;;;;;30.17;17.70;;;17.70;99.90;;;;;;5114284;28;20161;-50
2023/07/02 06:04:35;;;;;;;34.72;18.35;;;17.70;99.90;;;;;;5114236;28;20252;-50
2023/07/02 06:07:01;;;;;;;34.22;17.52;;;17.80;99.90;;;;;;5114453;28;20185;-50
2023/07/02 06:09:26;;;;;;;35.65;18.50;;;17.90;99.90;;;;;;5113839;28;20208;-50
2023/07/02 06:11:52;;;;;;;31.85;17.00;;;18.00;99.90;;;;;;5113983;28;20169;-50
2023/07/02 06:14:18;;;;;;;31.52;17.42;;;18.00;99.90;;;;;;5113988;28;20671;-50
2023/07/02 06:16:43;;;;;;;32.70;18.27;;;18.10;99.90;;;;;;5114129;28;20177;-50
2023/07/02 06:19:09;;;;;;;37.75;18.35;;;18.00;99.90;;;;;;5113880;28;20570;-50
2023/07/02 06:21:34;;;;;;;32.85;16.92;;;18.00;99.90;;;;;;5114078;28;20196;-50
2023/07/02 06:24:01;;;;;;;30.65;17.13;;;18.10;99.90;;;;;;5114231;28;20639;-50
2023/07/02 06:26:27;;;;;;;31.98;18.52;;;18.10;99.90;;;;;;5113685;28;20208;-50
2023/07/02 06:28:53;;;;;;;35.88;18.65;;;18.20;99.90;;;;;;5113927;28;20164;-50
2023/07/02 06:31:18;;;;;;;32.30;18.77;;;18.30;99.90;;;;;;5113608;28;20647;-50
2023/07/02 06:33:44;;;;;;;34.67;17.70;;;18.40;99.90;;;;;;5113819;28;20177;-51
2023/07/02 06:36:10;;;;;;;33.92;18.08;;;18.50;99.90;;;;;;5113466;28;20218;-50
2023/07/02 06:38:36;;;;;;;36.95;19.50;;;18.60;99.90;;;;;;5113470;28;20161;-50
2023/07/02 06:41:01;;;;;;;34.53;19.02;;;18.40;99.90;;;;;;5113522;28;20214;-50
2023/07/02 06:43:27;;;;;;;35.10;18.95;;;18.60;99.90;;;;;;5113431;28;20165;-50
2023/07/02 06:45:53;;;;;;;39.83;17.83;;;18.60;99.90;;;;;;5113327;28;20172;-50
2023/07/02 06:48:21;;;;;;;32.28;16.42;;;18.50;99.90;;;;;;5113535;28;20215;-50
2023/07/02 06:50:47;;;;;;;31.90;17.08;;;18.50;99.90;;;;;;5113496;28;20172;-50
2023/07/02 06:53:13;;;;;;;31.10;16.88;;;18.60;99.90;;;;;;5113281;28;20164;-50
2023/07/02 06:55:38;;;;;;;35.47;17.63;;;18.50;99.90;;;;;;5113121;28;20281;-51
2023/07/02 06:58:05;;;;;;;29.90;16.42;;;18.70;99.90;;;;;;5113323;28;20251;-51
2023/07/02 07:00:35;;;;;;;30.92;16.42;;;18.90;99.90;;;;;;5113487;28;20225;-50
2023/07/02 07:03:01;;;;;;;30.75;15.98;;;18.80;99.90;;;;;;5113384;28;20558;-50
2023/07/02 07:05:27;;;;;;;29.38;16.02;;;18.70;99.90;;;;;;5109852;28;20200;-50
2023/07/02 07:07:52;;;;;;;31.45;16.35;;;18.80;99.90;;;;;;5111121;28;20196;-50
2023/07/02 07:10:20;;;;;;;27.58;15.98;;;18.90;99.90;;;;;;5110760;28;20216;-50
2023/07/02 07:12:45;;;;;;;32.42;15.60;;;19.00;99.90;;;;;;5110837;28;20187;-50
2023/07/02 07:15:12;;;;;;;30.92;16.23;;;19.00;99.90;;;;;;5111062;28;20327;-50
2023/07/02 07:17:37;;;;;;;33.97;16.58;;;19.10;99.90;;;;;;5111033;28;20569;-50
2023/07/02 07:20:04;;;;;;;39.97;17.50;;;19.10;99.90;;;;;;5110906;28;20320;-50
2023/07/02 07:22:30;;;;;;;32.95;19.05;;;19.30;99.90;;;;;;5111556;28;20259;-50
2023/07/02 07:24:56;;;;;;;30.90;16.45;;;19.30;99.90;;;;;;5110647;28;20244;-50
2023/07/02 07:27:21;;;;;;;39.28;14.27;;;19.40;99.90;;;;;;5110762;28;20214;-50
2023/07/02 07:29:47;;;;;;;29.30;16.52;;;19.20;99.90;;;;;;5110665;28;20168;-50
2023/07/02 07:32:13;;;;;;;31.77;16.67;;;19.20;99.90;;;;;;5110512;28;20180;-50
2023/07/02 07:34:38;;;;;;;29.77;16.83;;;19.30;99.90;;;;;;5110443;28;20205;-50
2023/07/02 07:37:04;;;;;;;30.48;15.45;;;19.50;99.90;;;;;;5110568;28;20253;-50
2023/07/02 07:39:30;;;;;;;29.20;15.18;;;19.50;99.90;;;;;;5111223;28;20188;-50
2023/07/02 07:41:56;;;;;;;30.55;14.23;;;19.30;99.90;;;;;;5110619;28;20192;-50
2023/07/02 07:44:21;;;;;;;32.90;16.77;;;19.40;99.90;;;;;;5110543;28;20161;-50
2023/07/02 07:46:47;;;;;;;23.60;14.75;;;19.20;99.90;;;;;;5110483;28;20525;-50
2023/07/02 07:49:13;;;;;;;29.75;14.70;;;19.30;99.90;;;;;;5110550;28;20172;-50
2023/07/02 07:51:39;;;;;;;28.08;15.45;;;19.40;99.90;;;;;;5110595;28;20169;-50
2023/07/02 07:54:05;;;;;;;27.25;13.50;;;19.60;99.90;;;;;;5110253;28;20159;-50
2023/07/02 07:56:30;;;;;;;25.35;15.38;;;19.40;99.90;;;;;;5110995;28;20200;-50
2023/07/02 07:58:56;;;;;;;25.02;12.93;;;19.40;99.90;;;;;;5110369;28;20172;-50
2023/07/02 08:01:21;;;;;;;25.75;13.73;;;19.40;99.90;;;;;;5110298;28;20168;-50
2023/07/02 08:03:47;;;;;;;26.98;13.73;;;19.40;99.90;;;;;;5110234;28;20163;-50
2023/07/02 08:06:12;;;;;;;28.90;14.57;;;19.90;99.90;;;;;;5110345;28;20624;-50
2023/07/02 08:08:38;;;;;;;30.90;15.30;;;20.20;99.90;;;;;;5109940;28;20165;-50
2023/07/02 08:11:04;;;;;;;25.48;14.82;;;20.10;99.90;;;;;;5110079;28;20216;-50
2023/07/02 08:13:29;;;;;;;25.25;14.77;;;20.20;99.90;;;;;;5110521;28;20165;-50
2023/07/02 08:15:55;;;;;;;30.40;16.10;;;20.40;99.90;;;;;;5110002;28;20680;-51
2023/07/02 08:18:20;;;;;;;30.20;15.23;;;20.40;99.90;;;;;;5109930;28;20648;-51
2023/07/02 08:20:46;;;;;;;30.48;15.68;;;20.40;99.90;;;;;;5110047;28;20171;-51
2023/07/02 08:23:11;;;;;;;26.60;14.15;;;20.30;99.90;;;;;;5110138;28;20200;-51
2023/07/02 08:25:37;;;;;;;30.77;15.25;;;20.20;99.90;;;;;;5091794;28;20172;-51
2023/07/02 08:28:03;;;;;;;31.65;15.02;;;20.20;99.90;;;;;;5091966;28;20168;-50
2023/07/02 08:30:28;;;;;;;28.48;13.70;;;20.10;99.90;;;;;;5111020;28;20172;-50
2023/07/02 08:32:55;;;;;;;23.25;13.77;;;20.30;99.90;;;;;;5091760;28;20165;-50
2023/07/02 08:35:20;;;;;;;25.88;14.05;;;20.40;99.90;;;;;;5110163;28;20208;-50
2023/07/02 08:37:46;;;;;;;27.60;14.18;;;20.50;99.90;;;;;;5109983;28;20210;-49
2023/07/02 08:40:21;;;;;;;24.05;13.88;;;20.80;99.90;;;;;;5110323;28;20522;-51
2023/07/02 08:42:50;;;;;;;24.15;14.07;;;20.80;99.90;;;;;;5092397;28;20164;-53
2023/07/02 08:45:19;;;;;;;28.33;14.85;;;20.70;99.90;;;;;;5113749;28;20192;-50
2023/07/02 08:47:50;;;;;;;35.20;14.98;;;20.80;99.90;;;;;;5114013;28;20222;-50
2023/07/02 08:50:16;;;;;;;24.85;13.07;;;21.00;99.90;;;;;;5113911;28;20218;-53
2023/07/02 08:52:44;;;;;;;25.83;14.35;;;20.90;99.90;;;;;;5113650;28;20723;-53
2023/07/02 08:55:10;;;;;;;27.70;13.80;;;21.00;99.90;;;;;;5113992;28;20208;-52
2023/07/02 08:57:36;;;;;;;25.90;15.23;;;21.00;99.90;;;;;;5113938;28;20175;-52
2023/07/02 09:00:08;;;;;;;26.40;13.90;;;20.90;99.90;;;;;;5114272;28;20592;-49
2023/07/02 09:02:34;;;;;;;22.65;13.80;;;20.90;99.90;;;;;;5113590;28;20420;-48
2023/07/02 09:05:01;;;;;;;26.85;15.48;;;21.00;99.90;;;;;;5113883;28;20210;-51
2023/07/02 09:07:26;;;;;;;32.15;15.23;;;20.90;99.90;;;;;;5112906;28;20256;-51
2023/07/02 09:09:52;;;;;;;23.67;13.63;;;20.60;99.90;;;;;;5113314;28;20313;-48
2023/07/02 09:12:25;;;;;;;23.73;14.20;;;20.70;99.90;;;;;;5106157;28;20161;-49
2023/07/02 09:15:02;;;;;;;24.30;14.60;;;20.90;99.90;;;;;;5105331;28;20249;-50
2023/07/02 09:17:30;;;;;;;27.33;13.80;;;21.20;99.90;;;;;;5113755;28;20172;-51
2023/07/02 09:19:57;;;;;;;28.77;14.85;;;21.40;99.90;;;;;;5113249;28;20173;-52
2023/07/02 09:22:22;;;;;;;24.25;14.55;;;21.20;99.90;;;;;;5106070;28;20176;-51
2023/07/02 09:24:59;;;;;;;26.13;15.02;;;21.60;99.90;;;;;;5097976;28;20177;-52
2023/07/02 09:27:41;;;;;;;27.27;15.98;;;21.40;99.90;;;;;;5096999;28;20216;-51
2023/07/02 09:30:08;;;;;;;21.67;13.38;;;21.20;99.90;;;;;;5092811;28;20239;-52
2023/07/02 09:32:34;;;;;;;24.67;15.55;;;20.70;99.90;;;;;;5093067;28;20165;-50
2023/07/02 09:35:00;;;;;;;27.48;15.10;;;20.60;99.90;;;;;;5093308;28;20786;-50
2023/07/02 09:37:26;;;;;;;29.00;14.50;;;20.40;99.90;;;;;;5092955;28;20298;-50
2023/07/02 09:39:54;;;;;;;24.73;13.65;;;20.10;99.90;;;;;;5092649;28;20279;-50
2023/07/02 09:42:20;;;;;;;27.58;15.40;;;20.20;99.90;;;;;;5092542;28;20535;-50
2023/07/02 09:44:46;;;;;;;27.13;15.88;;;20.30;99.90;;;;;;5092562;28;20165;-50
2023/07/02 09:47:14;;;;;;;25.85;14.88;;;20.20;99.90;;;;;;5092948;28;20230;-50
2023/07/02 09:49:45;;;;;;;29.15;13.57;;;20.30;99.90;;;;;;5092570;28;20165;-50
2023/07/02 09:52:13;;;;;;;25.98;14.10;;;20.50;99.90;;;;;;5074337;28;20210;-50
2023/07/02 09:54:39;;;;;;;28.40;15.38;;;20.70;99.90;;;;;;5091919;28;20223;-50
2023/07/02 09:57:08;;;;;;;27.23;13.77;;;21.10;99.90;;;;;;5092099;28;20775;-50
2023/07/02 09:59:34;;;;;;;25.40;14.07;;;20.90;99.90;;;;;;5092358;28;20176;-50
2023/07/02 10:02:00;;;;;;;25.40;13.75;;;21.20;99.90;;;;;;5092731;28;20173;-50
2023/07/02 10:04:25;;;;;;;25.20;14.45;;;20.70;99.90;;;;;;5092223;28;20169;-50
2023/07/02 10:06:54;;;;;;;27.13;13.68;;;20.80;99.90;;;;;;5092232;28;20177;-51
2023/07/02 10:09:33;;;;;;;29.20;14.15;;;20.40;99.90;;;;;;5092035;28;20213;-50
2023/07/02 10:11:59;;;;;;;21.10;13.60;;;20.20;99.90;;;;;;5092426;28;20162;-50
2023/07/02 10:14:24;;;;;;;24.50;13.68;;;20.20;99.90;;;;;;5092110;28;20188;-50
2023/07/02 10:16:54;;;;;;;25.17;14.57;;;20.00;99.90;;;;;;5092112;28;20195;-51
2023/07/02 10:19:21;;;;;;;28.40;14.52;;;20.00;99.90;;;;;;5091947;28;20169;-50
2023/07/02 10:22:00;;;;;;;24.70;13.88;;;20.30;99.90;;;;;;5091920;28;20169;-50
2023/07/02 10:24:26;;;;;;;30.05;15.32;;;20.60;99.90;;;;;;5091917;28;20204;-50
2023/07/02 10:26:57;;;;;;;24.00;13.73;;;20.80;99.90;;;;;;5091945;28;20171;-50
2023/07/02 10:29:24;;;;;;;26.55;15.23;;;21.50;99.90;;;;;;5091685;28;20165;-49
2023/07/02 10:31:51;;;;;;;25.05;14.45;;;21.80;99.90;;;;;;5091843;28;20478;-51
2023/07/02 10:34:27;;;;;;;29.88;15.52;;;22.00;99.90;;;;;;5091681;28;20158;-49
2023/07/02 10:36:56;;;;;;;27.33;15.02;;;22.00;99.90;;;;;;5091530;28;20251;-49
2023/07/02 10:39:22;;;;;;;23.75;12.88;;;21.80;99.90;;;;;;5091593;28;20215;-49
2023/07/02 10:41:48;;;;;;;21.77;11.90;;;21.80;99.90;;;;;;5091207;28;20189;-49
2023/07/02 10:44:13;;;;;;;22.77;13.48;;;21.60;99.90;;;;;;5091366;28;20386;-49
2023/07/02 10:46:48;;;;;;;24.58;12.65;;;21.60;99.90;;;;;;5091336;28;20633;-49
2023/07/02 10:49:17;;;;;;;22.20;13.00;;;21.50;99.90;;;;;;5091414;28;20165;-50
2023/07/02 10:51:43;;;;;;;25.77;15.05;;;21.20;99.90;;;;;;5090624;28;20175;-53
2023/07/02 10:54:08;;;;;;;22.23;12.80;;;21.30;99.90;;;;;;5090916;28;20248;-52
2023/07/02 10:56:35;;;;;;;24.30;14.02;;;21.60;99.90;;;;;;5091138;28;20234;-49
2023/07/02 10:59:01;;;;;;;27.27;14.50;;;21.90;99.90;;;;;;5091272;28;20166;-51
2023/07/02 11:01:31;;;;;;;22.63;12.73;;;21.90;99.90;;;;;;5091026;28;20169;-49
2023/07/02 11:04:02;;;;;;;24.63;13.55;;;22.00;99.90;;;;;;5091033;28;20197;-52
2023/07/02 11:06:28;;;;;;;23.30;13.95;;;21.90;99.90;;;;;;5090987;28;20451;-50
2023/07/02 11:08:55;;;;;;;24.15;13.77;;;22.70;99.90;;;;;;5090885;28;20214;-52
2023/07/02 11:11:22;;;;;;;20.80;13.25;;;21.50;99.90;;;;;;5090666;28;20548;-51
2023/07/02 11:13:51;;;;;;;26.20;14.10;;;21.30;99.90;;;;;;5090535;28;20705;-50
2023/07/02 11:16:18;;;;;;;20.80;11.93;;;21.10;99.90;;;;;;5090724;28;20647;-49
2023/07/02 11:18:43;;;;;;;22.00;12.48;;;20.70;99.90;;;;;;5090962;28;20200;-49
2023/07/02 11:21:12;;;;;;;26.08;11.98;;;20.70;99.90;;;;;;5090812;28;20205;-49
2023/07/02 11:23:37;;;;;;;18.52;11.15;;;21.00;99.90;;;;;;5090991;28;20165;-52
2023/07/02 11:26:03;;;;;;;19.17;10.60;;;21.20;99.90;;;;;;5090616;28;20218;-51
2023/07/02 11:28:31;;;;;;;24.00;11.38;;;21.40;99.90;;;;;;5091060;28;20237;-53
2023/07/02 11:30:57;;;;;;;22.65;11.18;;;21.60;99.90;;;;;;5091182;28;20173;-52
2023/07/02 11:33:36;;;;;;;20.30;11.85;;;21.80;99.90;;;;;;5090547;28;20169;-52
2023/07/02 11:36:03;;;;;;;21.98;11.45;;;21.80;99.90;;;;;;5090272;28;20606;-52
2023/07/02 11:38:28;;;;;;;20.60;10.75;;;22.00;99.90;;;;;;5090890;28;20521;-52
2023/07/02 11:40:54;;;;;;;16.83;10.25;;;22.20;99.90;;;;;;5089659;28;20173;-52
2023/07/02 11:43:19;;;;;;;22.80;9.90;;;21.00;99.90;;;;;;5089254;28;20165;-53
2023/07/02 11:45:45;;;;;;;15.23;9.25;;;22.50;99.90;;;;;;5088493;28;20273;-52
2023/07/02 11:48:11;;;;;;;19.05;9.57;;;22.50;99.90;;;;;;5071039;28;20161;-49
2023/07/02 11:50:37;;;;;;;17.95;9.80;;;22.30;99.90;;;;;;5089638;28;20664;-53
2023/07/02 11:53:02;;;;;;;20.80;8.88;;;22.60;99.90;;;;;;5089542;28;20161;-53
2023/07/02 11:55:28;;;;;;;19.75;7.55;;;22.60;99.90;;;;;;5090116;28;20203;-53
2023/07/02 11:57:54;;;;;;;18.38;8.95;;;22.20;99.90;;;;;;5089826;28;20169;-53
2023/07/02 12:00:19;;;;;;;17.02;8.48;;;22.90;99.90;;;;;;5090091;28;20222;-52
2023/07/02 12:02:45;;;;;;;15.00;8.10;;;23.20;99.90;;;;;;5089941;28;20210;-53
2023/07/02 12:05:11;;;;;;;17.00;8.90;;;23.10;99.90;;;;;;5089933;28;20643;-49
2023/07/02 12:07:36;;;;;;;13.77;7.70;;;23.00;98.80;;;;;;5089810;28;20164;-49
2023/07/02 12:10:02;;;;;;;19.20;8.32;;;23.20;98.80;;;;;;5089526;28;20208;-48
2023/07/02 12:12:27;;;;;;;16.15;8.68;;;23.10;98.00;;;;;;5090263;28;20204;-49
2023/07/02 12:14:53;;;;;;;16.90;8.27;;;23.50;97.80;;;;;;5089761;28;20228;-48
2023/07/02 12:17:18;;;;;;;17.48;8.25;;;23.00;97.00;;;;;;5092613;28;20172;-48
2023/07/02 12:19:44;;;;;;;15.32;7.00;;;23.30;99.00;;;;;;5096678;28;20173;-49
2023/07/02 12:22:09;;;;;;;12.48;8.25;;;23.50;97.50;;;;;;5096430;28;20176;-48
2023/07/02 12:24:35;;;;;;;11.63;6.90;;;23.40;96.40;;;;;;5096495;28;20199;-49
2023/07/02 12:27:01;;;;;;;14.82;7.82;;;23.30;96.10;;;;;;5096879;28;20165;-49